Time;durP1;ratioP1;P1;durP2;ratioP2;P2;SDS_P1;SDS_P2;PMS_P1;PMS_P2;Temp;Humidity;BMP_temperature;BMP_pressure;BME280_temperature;BME280_humidity;BME280_pressure;Samples;Min_cycle;Max_cycle;Signal;HPM_P1;HPM_P2
2022/05/15 00:01:01;;;;;;;16.23;7.03;;;13.50;99.90;;;;;;4159967;28;20595;-77
2022/05/15 00:03:03;;;;;;;19.67;7.87;;;13.50;99.90;;;;;;4160368;28;20272;-77
2022/05/15 00:05:06;;;;;;;16.40;7.17;;;13.40;99.90;;;;;;4161313;28;20211;-77
2022/05/15 00:07:08;;;;;;;17.80;7.10;;;13.40;99.90;;;;;;4160086;28;20234;-78
2022/05/15 00:09:09;;;;;;;14.13;6.73;;;13.30;99.90;;;;;;4160537;28;20221;-78
2022/05/15 00:11:17;;;;;;;18.97;6.87;;;13.30;99.90;;;;;;4159988;28;20207;-77
2022/05/15 00:13:19;;;;;;;19.53;6.63;;;13.20;99.90;;;;;;4160262;28;20222;-78
2022/05/15 00:15:22;;;;;;;22.53;7.37;;;13.20;99.90;;;;;;4161206;28;20251;-78
2022/05/15 00:17:24;;;;;;;15.50;6.93;;;13.20;99.90;;;;;;4160420;28;20207;-77
2022/05/15 00:19:27;;;;;;;17.73;8.30;;;13.10;99.90;;;;;;4161511;28;20222;-77
2022/05/15 00:21:29;;;;;;;21.63;8.87;;;13.10;99.90;;;;;;4159759;28;20660;-78
2022/05/15 00:23:31;;;;;;;22.07;9.37;;;13.00;99.90;;;;;;4160195;28;20333;-78
2022/05/15 00:25:33;;;;;;;23.60;8.37;;;12.90;99.90;;;;;;4160319;28;20253;-77
2022/05/15 00:27:35;;;;;;;16.37;6.80;;;12.90;99.90;;;;;;4150752;28;20223;-77
2022/05/15 00:29:38;;;;;;;15.37;6.40;;;12.80;99.90;;;;;;4161001;28;20849;-77
2022/05/15 00:31:41;;;;;;;13.43;4.90;;;12.80;99.90;;;;;;4158415;28;20214;-77
2022/05/15 00:33:44;;;;;;;14.77;5.27;;;12.80;99.90;;;;;;4157428;28;20210;-78
2022/05/15 00:35:46;;;;;;;14.93;5.60;;;12.70;99.90;;;;;;4160824;28;20265;-77
2022/05/15 00:37:48;;;;;;;15.57;5.63;;;12.70;99.90;;;;;;4161105;28;20248;-77
2022/05/15 00:39:50;;;;;;;15.17;6.07;;;12.60;99.90;;;;;;4159782;28;20215;-78
2022/05/15 00:41:51;;;;;;;14.27;5.80;;;12.60;99.90;;;;;;4159157;28;20225;-77
2022/05/15 00:43:56;;;;;;;13.17;5.40;;;12.50;99.90;;;;;;4161273;28;20229;-78
2022/05/15 00:45:57;;;;;;;16.47;6.10;;;12.50;99.90;;;;;;4160778;28;20223;-77
2022/05/15 00:48:00;;;;;;;12.13;5.70;;;12.50;99.90;;;;;;4158405;28;20642;-78
2022/05/15 00:50:05;;;;;;;15.30;5.63;;;12.40;99.90;;;;;;4160295;28;20205;-77
2022/05/15 00:52:12;;;;;;;12.43;5.53;;;12.40;99.90;;;;;;4159847;28;20210;-77
2022/05/15 00:54:19;;;;;;;14.03;5.80;;;12.40;99.90;;;;;;4159793;28;20223;-77
2022/05/15 00:56:24;;;;;;;13.93;5.77;;;12.40;99.90;;;;;;4156178;28;20276;-78
2022/05/15 00:58:29;;;;;;;16.03;6.10;;;12.30;99.90;;;;;;4158952;28;20215;-77
2022/05/15 01:00:33;;;;;;;20.43;6.27;;;12.30;99.90;;;;;;4161439;28;20662;-77
2022/05/15 01:02:38;;;;;;;15.70;6.47;;;12.30;99.90;;;;;;4159351;28;20295;-77
2022/05/15 01:04:42;;;;;;;19.10;6.77;;;12.30;99.90;;;;;;4160183;28;20244;-77
2022/05/15 01:06:44;;;;;;;18.03;6.63;;;12.20;99.90;;;;;;4158314;28;20242;-77
2022/05/15 01:08:46;;;;;;;16.57;6.83;;;12.20;99.90;;;;;;4158647;28;20216;-77
2022/05/15 01:10:51;;;;;;;14.03;6.23;;;12.20;99.90;;;;;;4159168;28;20561;-77
2022/05/15 01:12:53;;;;;;;18.63;6.73;;;12.10;99.90;;;;;;4154247;28;20245;-77
2022/05/15 01:14:55;;;;;;;16.53;6.40;;;12.10;99.90;;;;;;4133518;28;20611;-77
2022/05/15 01:16:57;;;;;;;18.33;6.77;;;12.00;99.90;;;;;;4148049;28;20212;-77
2022/05/15 01:19:00;;;;;;;20.53;6.40;;;12.00;99.90;;;;;;4157850;28;20262;-77
2022/05/15 01:21:18;;;;;;;14.17;6.13;;;12.00;99.90;;;;;;4152919;28;20308;-77
2022/05/15 01:23:19;;;;;;;19.50;6.60;;;11.90;99.90;;;;;;4157345;28;20667;-77
2022/05/15 01:25:25;;;;;;;15.47;6.37;;;11.90;99.90;;;;;;4152621;28;20237;-77
2022/05/15 01:27:27;;;;;;;18.07;5.90;;;11.90;99.90;;;;;;4157904;28;20202;-77
2022/05/15 01:29:31;;;;;;;17.30;6.60;;;11.90;99.90;;;;;;4151557;28;21026;-77
2022/05/15 01:31:33;;;;;;;14.90;6.53;;;11.80;99.90;;;;;;4158009;28;20274;-77
2022/05/15 01:33:35;;;;;;;17.47;6.50;;;11.90;99.90;;;;;;4149660;28;20671;-77
2022/05/15 01:35:37;;;;;;;17.53;6.47;;;11.80;99.90;;;;;;4156228;28;20236;-77
2022/05/15 01:37:40;;;;;;;13.80;6.20;;;11.80;99.90;;;;;;4150614;28;20247;-77
2022/05/15 01:39:42;;;;;;;18.37;6.83;;;11.80;99.90;;;;;;4158120;28;20241;-77
2022/05/15 01:41:44;;;;;;;15.23;6.17;;;11.80;99.90;;;;;;4152220;28;20205;-77
2022/05/15 01:43:47;;;;;;;17.80;5.97;;;11.70;99.90;;;;;;4156951;28;20228;-77
2022/05/15 01:45:49;;;;;;;15.47;6.67;;;11.80;99.90;;;;;;4155493;28;20278;-78
2022/05/15 01:47:51;;;;;;;14.10;5.93;;;11.70;99.90;;;;;;4160074;28;20290;-78
2022/05/15 01:49:53;;;;;;;17.37;6.43;;;11.70;99.90;;;;;;4161162;28;20208;-78
2022/05/15 01:51:54;;;;;;;17.97;6.50;;;11.70;99.90;;;;;;4161048;28;20578;-77
2022/05/15 01:53:57;;;;;;;17.53;5.80;;;11.70;99.90;;;;;;4159556;28;20203;-77
2022/05/15 01:55:59;;;;;;;14.17;5.40;;;11.60;99.90;;;;;;4159904;28;20808;-79
2022/05/15 01:58:01;;;;;;;12.80;5.70;;;11.60;99.90;;;;;;4161713;28;20693;-79
2022/05/15 02:00:04;;;;;;;18.87;6.00;;;11.60;99.90;;;;;;4161432;28;20220;-79
2022/05/15 02:02:06;;;;;;;13.13;5.83;;;11.60;99.90;;;;;;4161105;28;20213;-79
2022/05/15 02:04:08;;;;;;;13.27;6.10;;;11.50;99.90;;;;;;4161652;28;20228;-79
2022/05/15 02:06:10;;;;;;;13.73;5.90;;;11.50;99.90;;;;;;4159992;28;20237;-79
2022/05/15 02:08:12;;;;;;;11.83;5.53;;;11.50;99.90;;;;;;4159642;28;20217;-79
2022/05/15 02:10:16;;;;;;;13.93;5.50;;;11.50;99.90;;;;;;4161340;28;20220;-79
2022/05/15 02:12:17;;;;;;;13.53;5.30;;;11.50;99.90;;;;;;4162204;28;20247;-79
2022/05/15 02:14:19;;;;;;;12.53;5.33;;;11.40;99.90;;;;;;4163537;28;20714;-79
2022/05/15 02:16:21;;;;;;;12.47;5.53;;;11.40;99.90;;;;;;4162198;28;20753;-79
2022/05/15 02:18:23;;;;;;;12.47;5.73;;;11.40;99.90;;;;;;4161631;28;20303;-79
2022/05/15 02:20:26;;;;;;;14.33;5.00;;;11.40;99.90;;;;;;4178937;28;20211;-79
2022/05/15 02:22:28;;;;;;;13.40;5.13;;;11.30;99.90;;;;;;4162529;28;20696;-79
2022/05/15 02:24:31;;;;;;;15.37;5.10;;;11.00;99.90;;;;;;4164260;28;20240;-79
2022/05/15 02:26:34;;;;;;;10.63;5.17;;;11.30;99.90;;;;;;4172184;28;20240;-79
2022/05/15 02:28:37;;;;;;;12.97;5.07;;;11.20;99.90;;;;;;4173530;28;20275;-79
2022/05/15 02:30:39;;;;;;;15.03;5.50;;;11.20;99.90;;;;;;4173920;28;20227;-79
2022/05/15 02:32:41;;;;;;;12.30;5.60;;;11.10;99.90;;;;;;4175651;28;20222;-79
2022/05/15 02:34:43;;;;;;;12.53;5.13;;;11.20;99.90;;;;;;4173028;28;20208;-79
2022/05/15 02:36:44;;;;;;;12.20;5.23;;;11.20;99.90;;;;;;4170267;28;20244;-79
2022/05/15 02:38:46;;;;;;;14.07;6.00;;;11.10;99.90;;;;;;4173097;28;20211;-78
2022/05/15 02:40:48;;;;;;;14.63;5.57;;;11.10;99.90;;;;;;4170630;28;20212;-79
2022/05/15 02:42:54;;;;;;;12.03;5.17;;;11.10;99.90;;;;;;4172563;28;20201;-79
2022/05/15 02:44:56;;;;;;;15.80;5.17;;;11.10;99.90;;;;;;4164870;28;20317;-79
2022/05/15 02:46:58;;;;;;;13.63;5.50;;;11.10;99.90;;;;;;4160610;28;20208;-79
2022/05/15 02:51:19;;;;;;;13.10;5.30;;;11.30;99.90;;;;;;4165230;28;20208;-79
2022/05/15 02:53:21;;;;;;;12.90;5.00;;;11.10;99.90;;;;;;4162800;28;20294;-79
2022/05/15 02:55:23;;;;;;;13.17;5.73;;;11.00;99.90;;;;;;4161571;28;20215;-79
2022/05/15 02:57:25;;;;;;;13.67;5.47;;;11.00;99.90;;;;;;4159578;28;20680;-76
2022/05/15 02:59:29;;;;;;;12.30;5.20;;;11.00;99.90;;;;;;4159028;28;20302;-76
2022/05/15 03:01:30;;;;;;;9.80;4.60;;;11.00;99.90;;;;;;4162884;28;20206;-76
2022/05/15 03:03:32;;;;;;;13.77;5.37;;;11.00;99.90;;;;;;4160054;28;20220;-76
2022/05/15 03:05:34;;;;;;;11.97;5.13;;;10.90;99.90;;;;;;4159899;28;20238;-77
2022/05/15 03:07:37;;;;;;;12.67;5.20;;;10.90;99.90;;;;;;4159769;28;20219;-77
2022/05/15 03:09:39;;;;;;;11.10;5.07;;;10.90;99.90;;;;;;4162417;28;20214;-76
2022/05/15 03:11:41;;;;;;;10.93;4.40;;;10.90;99.90;;;;;;4161743;28;20226;-76
2022/05/15 03:13:43;;;;;;;11.57;4.67;;;10.90;99.90;;;;;;4177521;28;20266;-77
2022/05/15 03:15:46;;;;;;;11.73;5.37;;;10.90;99.90;;;;;;4159973;28;20243;-77
2022/05/15 03:17:48;;;;;;;10.13;5.23;;;10.70;99.90;;;;;;4160597;28;20215;-79
2022/05/15 03:19:51;;;;;;;8.53;4.80;;;10.80;99.90;;;;;;4162120;28;20211;-77
2022/05/15 03:21:53;;;;;;;13.27;5.30;;;10.80;99.90;;;;;;4162465;28;20254;-76
2022/05/15 03:23:54;;;;;;;10.83;5.33;;;10.80;99.90;;;;;;4160047;28;20235;-77
2022/05/15 03:25:56;;;;;;;10.87;4.40;;;10.80;99.90;;;;;;4161784;28;20238;-76
2022/05/15 03:27:58;;;;;;;12.00;4.77;;;10.80;99.90;;;;;;4161725;28;20210;-77
2022/05/15 03:29:59;;;;;;;11.10;4.77;;;10.70;99.90;;;;;;4162860;28;20211;-77
2022/05/15 03:32:03;;;;;;;11.90;4.67;;;10.70;99.90;;;;;;4163968;28;20207;-77
2022/05/15 03:34:04;;;;;;;9.40;4.83;;;10.70;99.90;;;;;;4161940;28;20210;-77
2022/05/15 03:36:10;;;;;;;14.10;5.20;;;10.70;99.90;;;;;;4159117;28;20230;-77
2022/05/15 03:38:12;;;;;;;10.37;4.70;;;10.60;99.90;;;;;;4161782;28;20236;-77
2022/05/15 03:40:15;;;;;;;9.60;4.97;;;10.60;99.90;;;;;;4162070;28;20697;-77
2022/05/15 03:42:17;;;;;;;9.40;5.40;;;10.60;99.90;;;;;;4160921;28;20227;-76
2022/05/15 03:44:19;;;;;;;13.67;5.30;;;10.60;99.90;;;;;;4160267;28;20300;-77
2022/05/15 03:46:21;;;;;;;10.57;4.77;;;10.60;99.90;;;;;;4161584;28;20577;-77
2022/05/15 03:48:24;;;;;;;15.07;5.27;;;10.50;99.90;;;;;;4158286;28;20307;-77
2022/05/15 03:50:28;;;;;;;10.63;5.40;;;10.60;99.90;;;;;;4161367;28;20214;-77
2022/05/15 03:52:30;;;;;;;9.00;4.60;;;10.50;99.90;;;;;;4160522;28;20203;-76
2022/05/15 03:54:31;;;;;;;11.73;4.73;;;10.50;99.90;;;;;;4160625;28;20210;-77
2022/05/15 03:56:52;;;;;;;11.93;5.60;;;10.50;99.90;;;;;;4159136;28;20226;-77
2022/05/15 03:58:53;;;;;;;14.60;4.70;;;10.50;99.90;;;;;;4153277;28;20298;-77
2022/05/15 04:00:55;;;;;;;11.40;4.87;;;10.50;99.90;;;;;;4158989;28;20218;-76
2022/05/15 04:02:57;;;;;;;14.97;5.07;;;10.50;99.90;;;;;;4160811;28;20200;-77
2022/05/15 04:05:01;;;;;;;9.33;4.60;;;10.50;99.90;;;;;;4158971;28;20211;-76
2022/05/15 04:07:03;;;;;;;11.33;4.50;;;10.50;99.90;;;;;;4161038;28;20294;-76
2022/05/15 04:09:05;;;;;;;8.47;4.53;;;10.50;99.90;;;;;;4159697;28;20230;-77
2022/05/15 04:11:07;;;;;;;11.57;4.77;;;10.50;99.90;;;;;;4159166;28;20218;-77
2022/05/15 04:13:09;;;;;;;9.53;5.03;;;10.50;99.90;;;;;;4176507;28;20604;-76
2022/05/15 04:15:12;;;;;;;12.03;4.93;;;10.50;99.90;;;;;;4159771;28;20214;-76
2022/05/15 04:17:14;;;;;;;10.97;4.50;;;10.50;99.90;;;;;;4158824;28;20216;-77
2022/05/15 04:19:16;;;;;;;11.37;5.27;;;10.50;99.90;;;;;;4160733;28;20602;-77
2022/05/15 04:21:19;;;;;;;10.53;5.20;;;10.50;99.90;;;;;;4161024;28;20290;-76
2022/05/15 04:23:21;;;;;;;13.83;4.87;;;10.50;99.90;;;;;;4161155;28;20700;-77
2022/05/15 04:25:22;;;;;;;9.37;4.77;;;10.50;99.90;;;;;;4160144;28;20234;-77
2022/05/15 04:27:24;;;;;;;13.77;4.80;;;10.50;99.90;;;;;;4157866;28;20475;-77
2022/05/15 04:29:26;;;;;;;13.37;5.30;;;10.50;99.90;;;;;;4160036;28;20207;-77
2022/05/15 04:31:28;;;;;;;8.83;4.67;;;10.50;99.90;;;;;;4160864;28;20211;-77
2022/05/15 04:33:30;;;;;;;14.50;5.07;;;10.50;99.90;;;;;;4160818;28;20724;-77
2022/05/15 04:35:32;;;;;;;14.73;5.00;;;10.50;99.90;;;;;;4158767;28;20237;-77
2022/05/15 04:37:36;;;;;;;14.47;4.43;;;10.50;99.90;;;;;;4175719;28;20206;-77
2022/05/15 04:39:37;;;;;;;13.47;4.57;;;10.60;99.90;;;;;;4159225;28;20203;-77
2022/05/15 04:41:39;;;;;;;10.03;4.57;;;10.50;99.90;;;;;;4161204;28;20219;-77
2022/05/15 04:43:41;;;;;;;10.97;4.40;;;10.90;99.90;;;;;;4159830;28;20234;-77
2022/05/15 04:45:43;;;;;;;12.50;4.73;;;10.50;99.90;;;;;;4160797;28;20270;-76
2022/05/15 04:47:45;;;;;;;11.00;4.33;;;10.60;99.90;;;;;;4160690;28;20692;-77
2022/05/15 04:49:49;;;;;;;12.77;4.50;;;10.60;99.90;;;;;;4160361;28;20210;-77
2022/05/15 04:51:51;;;;;;;9.33;4.90;;;10.70;99.90;;;;;;4160243;28;20207;-77
2022/05/15 04:53:55;;;;;;;12.67;4.97;;;10.60;99.90;;;;;;4160472;28;20261;-77
2022/05/15 04:55:57;;;;;;;10.20;4.70;;;10.60;99.90;;;;;;4160043;28;20207;-77
2022/05/15 04:57:58;;;;;;;16.50;5.20;;;10.60;99.90;;;;;;4157167;28;20215;-77
2022/05/15 05:00:00;;;;;;;11.77;5.70;;;10.60;99.90;;;;;;4159631;28;20196;-77
2022/05/15 05:02:03;;;;;;;14.23;6.10;;;10.60;99.90;;;;;;4175588;28;20215;-76
2022/05/15 05:04:05;;;;;;;10.67;5.67;;;10.60;99.90;;;;;;4159192;28;20673;-76
2022/05/15 05:06:07;;;;;;;17.87;6.07;;;10.60;99.90;;;;;;4160137;28;20750;-76
2022/05/15 05:08:13;;;;;;;16.50;6.20;;;10.60;99.90;;;;;;4153439;28;20680;-76
2022/05/15 05:10:16;;;;;;;16.83;6.10;;;10.80;99.90;;;;;;4160160;28;20211;-77
2022/05/15 05:12:18;;;;;;;15.17;5.67;;;10.70;99.90;;;;;;4158147;28;20215;-78
2022/05/15 05:14:20;;;;;;;12.70;6.10;;;10.70;99.90;;;;;;4158812;28;20689;-77
2022/05/15 05:16:22;;;;;;;15.50;9.83;;;10.70;99.90;;;;;;4156718;28;20235;-77
2022/05/15 05:18:24;;;;;;;17.60;9.77;;;10.80;99.90;;;;;;4159158;28;20199;-77
2022/05/15 05:20:26;;;;;;;15.40;8.20;;;10.80;99.90;;;;;;4160236;28;20205;-76
2022/05/15 05:22:28;;;;;;;15.70;6.97;;;10.80;99.90;;;;;;4160163;28;20215;-77
2022/05/15 05:24:30;;;;;;;14.93;6.30;;;10.80;99.90;;;;;;4156078;28;20661;-77
2022/05/15 05:26:34;;;;;;;17.33;6.47;;;10.90;99.90;;;;;;4159729;28;20732;-77
2022/05/15 05:28:36;;;;;;;20.13;7.00;;;11.00;99.90;;;;;;4159499;28;20209;-77
2022/05/15 05:30:38;;;;;;;21.60;9.40;;;10.90;99.90;;;;;;4174306;28;20210;-76
2022/05/15 05:32:39;;;;;;;22.07;9.37;;;11.00;99.90;;;;;;4159071;28;20690;-76
2022/05/15 05:34:41;;;;;;;18.93;8.50;;;11.00;99.90;;;;;;4159024;28;20652;-77
2022/05/15 05:36:43;;;;;;;18.20;7.07;;;11.00;99.90;;;;;;4160507;28;20223;-77
2022/05/15 05:38:46;;;;;;;14.87;5.93;;;11.10;99.90;;;;;;4155810;28;20255;-77
2022/05/15 05:40:47;;;;;;;21.57;5.43;;;11.10;99.90;;;;;;4160608;28;20204;-76
2022/05/15 05:42:51;;;;;;;13.07;5.17;;;11.20;99.90;;;;;;4151600;28;20246;-77
2022/05/15 05:44:54;;;;;;;11.13;4.43;;;11.20;99.90;;;;;;4158808;28;20238;-76
2022/05/15 05:46:56;;;;;;;9.97;4.13;;;11.20;99.90;;;;;;4157663;28;20584;-76
2022/05/15 05:48:58;;;;;;;15.20;4.57;;;11.30;99.90;;;;;;4160261;28;20294;-76
2022/05/15 05:51:00;;;;;;;8.60;3.60;;;11.30;99.90;;;;;;4159015;28;20212;-76
2022/05/15 05:53:02;;;;;;;8.90;3.57;;;11.40;99.90;;;;;;4157382;28;20234;-76
2022/05/15 05:55:04;;;;;;;14.37;3.90;;;11.40;99.90;;;;;;4159861;28;20202;-77
2022/05/15 05:57:07;;;;;;;10.87;4.03;;;11.40;99.90;;;;;;4160738;28;20212;-76
2022/05/15 05:59:10;;;;;;;14.57;4.10;;;11.50;99.90;;;;;;4159280;28;20220;-76
2022/05/15 06:01:13;;;;;;;10.40;3.77;;;11.50;99.90;;;;;;4160595;28;20221;-76
2022/05/15 06:05:34;;;;;;;10.50;3.40;;;11.60;99.90;;;;;;4159840;28;20248;-76
2022/05/15 06:07:37;;;;;;;12.87;3.53;;;11.70;99.90;;;;;;4163260;28;20275;-76
2022/05/15 06:09:42;;;;;;;11.73;3.60;;;11.60;99.90;;;;;;4165663;28;20265;-76
2022/05/15 06:11:44;;;;;;;12.77;4.00;;;11.80;99.90;;;;;;4159632;28;20208;-76
2022/05/15 06:13:45;;;;;;;13.47;4.20;;;11.80;99.90;;;;;;4167797;28;20272;-76
2022/05/15 06:15:48;;;;;;;12.73;4.47;;;11.80;99.90;;;;;;4167391;28;20257;-76
2022/05/15 06:17:51;;;;;;;7.93;3.67;;;11.90;99.90;;;;;;4166566;28;20266;-76
2022/05/15 06:19:53;;;;;;;9.17;3.60;;;11.90;99.90;;;;;;4167776;28;20206;-76
2022/05/15 06:21:55;;;;;;;15.23;3.83;;;12.00;99.90;;;;;;4165890;28;20255;-77
2022/05/15 06:23:57;;;;;;;13.40;3.30;;;12.00;99.90;;;;;;4157423;28;20216;-76
2022/05/15 06:25:59;;;;;;;11.23;3.53;;;12.10;99.90;;;;;;4159922;28;20233;-79
2022/05/15 06:28:03;;;;;;;7.93;4.03;;;12.10;99.90;;;;;;4159946;28;20292;-78
2022/05/15 06:30:06;;;;;;;8.87;3.37;;;12.20;99.90;;;;;;4158737;28;20300;-79
2022/05/15 06:32:16;;;;;;;13.83;3.60;;;12.20;99.90;;;;;;4180623;28;20853;-77
2022/05/15 06:34:20;;;;;;;8.60;3.77;;;12.30;99.90;;;;;;4158111;28;20678;-77
2022/05/15 06:36:22;;;;;;;14.17;4.30;;;12.30;99.90;;;;;;4162937;28;20226;-77
2022/05/15 06:38:24;;;;;;;10.93;3.60;;;12.30;99.90;;;;;;4160872;28;20298;-77
2022/05/15 06:40:26;;;;;;;9.90;3.50;;;12.40;99.90;;;;;;4162784;28;20467;-76
2022/05/15 06:42:29;;;;;;;10.37;3.53;;;12.50;99.90;;;;;;4162312;28;20288;-76
2022/05/15 06:44:33;;;;;;;14.23;3.33;;;12.50;99.90;;;;;;4161969;28;20215;-76
2022/05/15 06:46:35;;;;;;;10.03;3.30;;;12.50;99.90;;;;;;4160753;28;20313;-77
2022/05/15 06:48:40;;;;;;;9.73;3.67;;;12.60;99.90;;;;;;4163302;28;20222;-78
2022/05/15 06:50:42;;;;;;;8.40;2.87;;;12.70;99.90;;;;;;4163406;28;20671;-78
2022/05/15 06:52:44;;;;;;;10.13;3.47;;;12.70;99.90;;;;;;4163968;28;20209;-77
2022/05/15 06:54:46;;;;;;;8.43;2.90;;;12.80;99.90;;;;;;4159365;28;20209;-78
2022/05/15 06:59:07;;;;;;;8.77;2.87;;;12.90;99.90;;;;;;4164916;28;20217;-77
2022/05/15 07:01:09;;;;;;;7.63;3.17;;;13.00;99.90;;;;;;4163874;28;20318;-78
2022/05/15 07:03:11;;;;;;;8.00;2.70;;;13.00;99.90;;;;;;4164224;28;20221;-78
2022/05/15 07:05:18;;;;;;;8.70;2.83;;;13.10;99.90;;;;;;4165508;28;20317;-78
2022/05/15 07:07:19;;;;;;;7.60;2.83;;;13.10;99.90;;;;;;4169911;28;20199;-79
2022/05/15 07:09:21;;;;;;;12.53;3.30;;;13.20;99.90;;;;;;4171915;28;20584;-79
2022/05/15 07:11:26;;;;;;;9.83;2.90;;;13.20;99.90;;;;;;4174198;28;20214;-79
2022/05/15 07:13:28;;;;;;;13.80;3.43;;;13.30;99.90;;;;;;4170408;28;20223;-78
2022/05/15 07:15:30;;;;;;;8.27;2.70;;;13.20;99.90;;;;;;4170427;28;20241;-78
2022/05/15 07:17:33;;;;;;;12.43;3.13;;;13.40;99.90;;;;;;4189772;28;20329;-78
2022/05/15 07:19:35;;;;;;;10.17;2.87;;;13.50;99.90;;;;;;4174016;28;20207;-77
2022/05/15 07:21:38;;;;;;;18.40;3.57;;;13.60;99.90;;;;;;4174372;28;20294;-77
2022/05/15 07:23:41;;;;;;;8.10;2.63;;;13.60;99.90;;;;;;4173089;28;20300;-77
2022/05/15 07:25:43;;;;;;;9.00;2.90;;;13.70;99.90;;;;;;4171834;28;20269;-77
2022/05/15 07:27:44;;;;;;;5.97;2.30;;;13.80;99.90;;;;;;4171243;28;20207;-77
2022/05/15 07:29:46;;;;;;;9.90;3.00;;;13.90;99.90;;;;;;4173885;28;20319;-78
2022/05/15 07:31:50;;;;;;;9.57;3.00;;;13.90;99.90;;;;;;4172267;28;20770;-77
2022/05/15 07:33:52;;;;;;;7.17;2.90;;;14.00;99.90;;;;;;4171492;28;20209;-78
2022/05/15 07:35:55;;;;;;;11.30;3.50;;;14.00;99.90;;;;;;4171877;28;20302;-78
2022/05/15 07:37:58;;;;;;;9.37;3.00;;;14.00;99.90;;;;;;4163540;28;20211;-77
2022/05/15 07:40:00;;;;;;;8.57;2.70;;;14.10;99.90;;;;;;4165690;28;20203;-79
2022/05/15 07:42:02;;;;;;;11.70;2.97;;;14.10;99.90;;;;;;4166798;28;20221;-78
2022/05/15 07:44:04;;;;;;;12.00;2.90;;;14.30;99.90;;;;;;4167444;28;20192;-79
2022/05/15 07:46:06;;;;;;;9.27;3.03;;;14.30;99.90;;;;;;4165760;28;20229;-78
2022/05/15 07:48:10;;;;;;;7.03;2.30;;;14.40;99.90;;;;;;4179477;28;20206;-79
2022/05/15 07:50:14;;;;;;;9.10;2.60;;;14.40;99.90;;;;;;4163609;28;20211;-79
2022/05/15 07:52:15;;;;;;;13.13;2.93;;;14.40;99.90;;;;;;4164593;28;20222;-79
2022/05/15 07:54:19;;;;;;;10.40;2.80;;;14.50;99.90;;;;;;4163579;28;20230;-78
2022/05/15 07:56:21;;;;;;;9.80;2.60;;;14.60;99.90;;;;;;4162563;28;20219;-79
2022/05/15 07:58:25;;;;;;;10.50;2.80;;;14.60;99.90;;;;;;4160897;28;20571;-77
2022/05/15 08:00:27;;;;;;;15.30;3.40;;;14.70;99.90;;;;;;4160909;28;20222;-77
2022/05/15 08:02:29;;;;;;;11.37;3.30;;;14.70;99.90;;;;;;4160813;28;20232;-77
2022/05/15 08:04:31;;;;;;;9.53;2.50;;;14.90;99.90;;;;;;4160290;28;20215;-77
2022/05/15 08:08:52;;;;;;;7.80;2.63;;;14.80;99.90;;;;;;4157305;28;20673;-77
2022/05/15 08:10:55;;;;;;;6.07;2.73;;;15.00;99.90;;;;;;4159319;28;20208;-78
2022/05/15 08:12:57;;;;;;;6.47;2.20;;;15.10;99.90;;;;;;4159109;28;20218;-77
2022/05/15 08:14:59;;;;;;;10.87;2.70;;;15.10;99.90;;;;;;4159071;28;20211;-78
2022/05/15 08:17:01;;;;;;;13.23;2.53;;;15.20;99.90;;;;;;4157472;28;20693;-77
2022/05/15 08:23:46;;;;;;;6.53;2.00;;;15.40;98.00;;;;;;4160273;28;20199;-78
2022/05/15 08:25:48;;;;;;;10.70;2.23;;;15.50;96.70;;;;;;4159231;28;20261;-78
2022/05/15 08:27:51;;;;;;;8.70;2.10;;;15.50;95.30;;;;;;4160176;28;20208;-78
2022/05/15 08:29:53;;;;;;;9.07;2.10;;;15.60;94.40;;;;;;4160137;28;20573;-78
2022/05/15 08:31:55;;;;;;;10.43;2.27;;;15.60;95.30;;;;;;4160970;28;20563;-78
2022/05/15 08:33:57;;;;;;;13.87;3.10;;;15.70;95.80;;;;;;4159711;28;20211;-78
2022/05/15 08:35:59;;;;;;;13.00;2.40;;;15.70;94.60;;;;;;4159289;28;20278;-78
2022/05/15 08:38:01;;;;;;;8.27;2.10;;;15.70;92.00;;;;;;4160011;28;20567;-77
2022/05/15 08:40:03;;;;;;;7.53;2.37;;;15.80;91.70;;;;;;4159277;28;20212;-77
2022/05/15 08:42:19;;;;;;;11.93;2.40;;;15.90;92.50;;;;;;4159355;28;20287;-77
2022/05/15 08:44:29;;;;;;;10.10;2.53;;;15.90;93.60;;;;;;4158765;28;20226;-77
2022/05/15 08:46:39;;;;;;;10.53;2.37;;;16.00;93.60;;;;;;4158142;28;20647;-77
2022/05/15 08:48:41;;;;;;;10.67;2.60;;;16.00;92.60;;;;;;4159707;28;20289;-78
2022/05/15 08:50:47;;;;;;;10.07;2.73;;;16.10;92.60;;;;;;4159652;28;20220;-77
2022/05/15 08:52:55;;;;;;;9.40;2.33;;;16.10;93.70;;;;;;4159039;28;20205;-77
2022/05/15 08:55:02;;;;;;;7.80;2.17;;;16.20;94.40;;;;;;4158599;28;20206;-77
2022/05/15 08:57:05;;;;;;;8.97;2.40;;;16.30;94.10;;;;;;4178620;28;20275;-77
2022/05/15 08:59:27;;;;;;;10.80;2.63;;;16.30;93.10;;;;;;4159278;28;20211;-78
2022/05/15 09:01:30;;;;;;;10.13;3.07;;;16.40;93.20;;;;;;4160223;28;20590;-78
2022/05/15 09:03:35;;;;;;;13.73;3.33;;;16.50;93.30;;;;;;4160600;28;20199;-77
2022/05/15 09:05:37;;;;;;;13.80;2.97;;;16.60;93.40;;;;;;4160188;28;20227;-78
2022/05/15 09:07:51;;;;;;;8.90;2.40;;;16.60;94.60;;;;;;4157372;28;20227;-78
2022/05/15 09:09:59;;;;;;;10.43;2.77;;;16.70;94.60;;;;;;4152618;28;20208;-78
2022/05/15 09:12:11;;;;;;;10.57;2.60;;;16.70;92.90;;;;;;4178002;28;20210;-78
2022/05/15 09:14:21;;;;;;;12.60;3.40;;;16.80;91.30;;;;;;4159983;28;20233;-78
2022/05/15 09:16:26;;;;;;;12.00;3.03;;;16.90;90.80;;;;;;4160362;28;20214;-78
2022/05/15 09:18:33;;;;;;;8.53;2.37;;;17.00;91.30;;;;;;4158889;28;20215;-76
2022/05/15 09:20:47;;;;;;;14.33;2.40;;;17.00;91.70;;;;;;4160671;28;20680;-77
2022/05/15 09:22:54;;;;;;;9.90;2.77;;;17.10;92.40;;;;;;4161349;28;20664;-77
2022/05/15 09:24:56;;;;;;;12.17;2.87;;;17.20;92.40;;;;;;4156172;28;20677;-78
2022/05/15 09:27:12;;;;;;;8.33;2.90;;;17.30;90.50;;;;;;4190755;22;20793;-81
2022/05/15 09:29:18;;;;;;;9.67;2.43;;;17.30;88.90;;;;;;4175043;28;21678;-81
2022/05/15 09:31:24;;;;;;;10.33;2.70;;;17.40;87.60;;;;;;4177915;28;20260;-82
2022/05/15 09:33:33;;;;;;;11.17;2.60;;;17.50;86.20;;;;;;4174884;28;20268;-81
2022/05/15 09:35:38;;;;;;;11.33;2.83;;;17.60;84.60;;;;;;4168827;28;20233;-82
2022/05/15 09:40:11;;;;;;;10.30;2.73;;;17.70;81.60;;;;;;4163924;28;20206;-79
2022/05/15 09:44:43;;;;;;;13.87;2.93;;;17.90;82.40;;;;;;4161480;28;20207;-79
2022/05/15 09:46:57;;;;;;;7.80;2.33;;;18.00;76.10;;;;;;4177286;28;20720;-78
2022/05/15 09:49:05;;;;;;;8.73;2.80;;;18.10;77.00;;;;;;4176398;28;20210;-79
2022/05/15 09:51:11;;;;;;;11.67;2.80;;;18.10;76.50;;;;;;4174942;28;20206;-78
2022/05/15 09:53:22;;;;;;;11.87;2.93;;;18.20;77.00;;;;;;4177080;28;20698;-79
2022/05/15 09:55:30;;;;;;;10.80;2.80;;;18.30;72.30;;;;;;4176640;28;20203;-78
2022/05/15 09:57:32;;;;;;;9.70;2.60;;;18.30;69.50;;;;;;4172634;28;20202;-81
2022/05/15 09:59:34;;;;;;;11.90;3.00;;;18.40;64.60;;;;;;4176652;28;20209;-80
2022/05/15 10:01:39;;;;;;;6.77;2.50;;;18.40;64.00;;;;;;4176419;28;20221;-78
2022/05/15 10:03:40;;;;;;;8.47;2.50;;;18.40;61.70;;;;;;4174577;28;20355;-78
2022/05/15 10:05:44;;;;;;;6.60;2.17;;;18.50;60.80;;;;;;4180541;28;20240;-78
2022/05/15 10:07:57;;;;;;;8.10;2.83;;;18.50;60.80;;;;;;4172137;28;20311;-80
2022/05/15 10:10:15;;;;;;;7.80;2.40;;;18.60;61.50;;;;;;4177221;28;20239;-79
2022/05/15 10:12:26;;;;;;;9.50;2.73;;;18.70;60.40;;;;;;4180037;28;20244;-79
2022/05/15 10:14:33;;;;;;;10.03;2.53;;;18.70;60.80;;;;;;4181609;28;20215;-80
2022/05/15 10:16:44;;;;;;;12.23;2.47;;;18.80;59.90;;;;;;4169067;28;20280;-79
2022/05/15 10:18:53;;;;;;;9.53;2.70;;;18.90;59.00;;;;;;4178804;28;20213;-82
2022/05/15 10:20:58;;;;;;;10.07;2.93;;;19.00;59.90;;;;;;4176766;28;20208;-83
2022/05/15 10:23:04;;;;;;;14.60;2.97;;;19.00;58.60;;;;;;4160868;28;20240;-78
2022/05/15 10:25:16;;;;;;;9.63;2.47;;;19.20;56.50;;;;;;4177834;28;20224;-81
2022/05/15 10:27:22;;;;;;;12.47;2.73;;;19.20;55.90;;;;;;4159212;28;20252;-81
2022/05/15 10:29:29;;;;;;;9.17;2.80;;;19.30;56.60;;;;;;4173114;28;20208;-82
2022/05/15 10:31:35;;;;;;;8.30;2.43;;;19.40;58.10;;;;;;4179362;28;20208;-81
2022/05/15 10:33:39;;;;;;;8.33;2.47;;;19.60;58.20;;;;;;4176126;28;20216;-81
2022/05/15 10:35:53;;;;;;;10.53;2.57;;;19.70;57.10;;;;;;4177795;28;20216;-81
2022/05/15 10:38:08;;;;;;;10.47;2.63;;;19.90;55.80;;;;;;4176230;28;20207;-82
2022/05/15 10:40:25;;;;;;;6.87;2.13;;;20.00;53.90;;;;;;4179560;28;20206;-81
2022/05/15 10:42:37;;;;;;;10.53;2.27;;;20.30;52.70;;;;;;4169415;28;20219;-82
2022/05/15 10:44:49;;;;;;;5.77;2.10;;;20.30;51.30;;;;;;4174345;28;20217;-82
2022/05/15 10:46:56;;;;;;;7.27;2.17;;;20.50;50.20;;;;;;4176297;28;20317;-82
2022/05/15 10:49:10;;;;;;;8.47;2.57;;;20.60;50.10;;;;;;4177053;28;20217;-83
2022/05/15 10:51:17;;;;;;;10.30;2.40;;;20.70;49.90;;;;;;4172418;28;21109;-82
2022/05/15 10:58:49;;;;;;;11.47;3.20;;;21.40;48.70;;;;;;4137675;28;20300;-84
2022/05/15 11:01:00;;;;;;;10.50;2.67;;;21.60;47.80;;;;;;4173282;28;20218;-83